sensor_id;sensor_type;location;lat;lon;timestamp;temperature;humidity
27534;DHT22;14973;51.460;7.008;2022-10-16T00:01:34;14.20;99.90
27534;DHT22;14973;51.460;7.008;2022-10-16T00:04:00;14.20;99.90
27534;DHT22;14973;51.460;7.008;2022-10-16T00:06:27;14.30;99.90
27534;DHT22;14973;51.460;7.008;2022-10-16T00:08:53;14.20;99.90
27534;DHT22;14973;51.460;7.008;2022-10-16T00:11:39;14.10;99.90
27534;DHT22;14973;51.460;7.008;2022-10-16T00:14:09;14.10;99.90
27534;DHT22;14973;51.460;7.008;2022-10-16T00:16:36;14.00;99.90
27534;DHT22;14973;51.460;7.008;2022-10-16T00:19:02;14.00;99.90
27534;DHT22;14973;51.460;7.008;2022-10-16T00:21:29;14.00;99.90
27534;DHT22;14973;51.460;7.008;2022-10-16T00:23:58;14.00;99.90
27534;DHT22;14973;51.460;7.008;2022-10-16T00:26:25;14.10;99.90
27534;DHT22;14973;51.460;7.008;2022-10-16T00:28:51;14.10;99.90
27534;DHT22;14973;51.460;7.008;2022-10-16T00:31:19;14.10;99.90
27534;DHT22;14973;51.460;7.008;2022-10-16T00:33:45;14.10;99.90
27534;DHT22;14973;51.460;7.008;2022-10-16T00:36:13;14.10;99.90
27534;DHT22;14973;51.460;7.008;2022-10-16T00:38:40;14.20;99.90
27534;DHT22;14973;51.460;7.008;2022-10-16T00:41:07;14.20;99.90
27534;DHT22;14973;51.460;7.008;2022-10-16T00:43:36;14.10;99.90
27534;DHT22;14973;51.460;7.008;2022-10-16T00:46:07;14.10;99.90
27534;DHT22;14973;51.460;7.008;2022-10-16T00:48:35;14.10;99.90
27534;DHT22;14973;51.460;7.008;2022-10-16T00:51:01;14.20;99.90
27534;DHT22;14973;51.460;7.008;2022-10-16T00:53:27;14.20;99.90
27534;DHT22;14973;51.460;7.008;2022-10-16T00:55:53;14.30;99.90
27534;DHT22;14973;51.460;7.008;2022-10-16T00:58:19;14.20;99.90
27534;DHT22;14973;51.460;7.008;2022-10-16T01:00:45;14.20;99.90
27534;DHT22;14973;51.460;7.008;2022-10-16T01:03:29;14.20;99.90
27534;DHT22;14973;51.460;7.008;2022-10-16T01:08:54;14.20;99.90
27534;DHT22;14973;51.460;7.008;2022-10-16T01:11:30;14.20;99.90
27534;DHT22;14973;51.460;7.008;2022-10-16T01:14:02;14.20;99.90
27534;DHT22;14973;51.460;7.008;2022-10-16T01:16:40;14.10;99.90
27534;DHT22;14973;51.460;7.008;2022-10-16T01:19:12;14.20;99.90
27534;DHT22;14973;51.460;7.008;2022-10-16T01:21:44;14.20;99.90
27534;DHT22;14973;51.460;7.008;2022-10-16T01:24:40;14.10;99.90
27534;DHT22;14973;51.460;7.008;2022-10-16T01:27:09;14.00;99.90
27534;DHT22;14973;51.460;7.008;2022-10-16T01:29:44;14.00;99.90
27534;DHT22;14973;51.460;7.008;2022-10-16T01:32:31;14.00;99.90
27534;DHT22;14973;51.460;7.008;2022-10-16T01:37:39;14.00;99.90
27534;DHT22;14973;51.460;7.008;2022-10-16T01:40:11;13.90;99.90
27534;DHT22;14973;51.460;7.008;2022-10-16T01:42:49;14.00;99.90
27534;DHT22;14973;51.460;7.008;2022-10-16T01:45:19;14.00;99.90
27534;DHT22;14973;51.460;7.008;2022-10-16T01:47:46;13.90;99.90
27534;DHT22;14973;51.460;7.008;2022-10-16T01:50:15;13.80;99.90
27534;DHT22;14973;51.460;7.008;2022-10-16T01:52:45;13.90;99.90
27534;DHT22;14973;51.460;7.008;2022-10-16T01:55:16;13.90;99.90
27534;DHT22;14973;51.460;7.008;2022-10-16T01:57:46;14.00;99.90
27534;DHT22;14973;51.460;7.008;2022-10-16T02:00:13;14.10;99.90
27534;DHT22;14973;51.460;7.008;2022-10-16T02:02:42;14.00;99.90
27534;DHT22;14973;51.460;7.008;2022-10-16T02:05:25;14.10;99.90
27534;DHT22;14973;51.460;7.008;2022-10-16T02:07:51;14.20;99.90
27534;DHT22;14973;51.460;7.008;2022-10-16T02:10:18;14.20;99.90
27534;DHT22;14973;51.460;7.008;2022-10-16T02:12:53;14.10;99.90
27534;DHT22;14973;51.460;7.008;2022-10-16T02:15:20;14.20;99.90
27534;DHT22;14973;51.460;7.008;2022-10-16T02:17:46;14.20;99.90
27534;DHT22;14973;51.460;7.008;2022-10-16T02:20:12;14.20;99.90
27534;DHT22;14973;51.460;7.008;2022-10-16T02:22:46;14.20;99.90
27534;DHT22;14973;51.460;7.008;2022-10-16T02:28:02;14.10;99.90
27534;DHT22;14973;51.460;7.008;2022-10-16T02:30:39;14.10;99.90
27534;DHT22;14973;51.460;7.008;2022-10-16T02:33:09;14.20;99.90
27534;DHT22;14973;51.460;7.008;2022-10-16T02:35:36;14.00;99.90
27534;DHT22;14973;51.460;7.008;2022-10-16T02:38:03;14.00;99.90
27534;DHT22;14973;51.460;7.008;2022-10-16T02:40:30;14.00;99.90
27534;DHT22;14973;51.460;7.008;2022-10-16T02:42:55;14.10;99.90
27534;DHT22;14973;51.460;7.008;2022-10-16T02:45:22;14.10;99.90
27534;DHT22;14973;51.460;7.008;2022-10-16T02:47:48;14.10;99.90
27534;DHT22;14973;51.460;7.008;2022-10-16T02:50:14;14.10;99.90
27534;DHT22;14973;51.460;7.008;2022-10-16T02:52:39;14.20;99.90
27534;DHT22;14973;51.460;7.008;2022-10-16T02:55:05;14.20;99.90
27534;DHT22;14973;51.460;7.008;2022-10-16T02:57:31;14.20;99.90
27534;DHT22;14973;51.460;7.008;2022-10-16T02:59:57;14.30;99.90
27534;DHT22;14973;51.460;7.008;2022-10-16T03:02:23;14.30;99.90
27534;DHT22;14973;51.460;7.008;2022-10-16T03:04:49;14.40;99.90
27534;DHT22;14973;51.460;7.008;2022-10-16T03:07:14;14.30;99.90
27534;DHT22;14973;51.460;7.008;2022-10-16T03:09:40;14.30;99.90
27534;DHT22;14973;51.460;7.008;2022-10-16T03:12:06;14.40;99.90
27534;DHT22;14973;51.460;7.008;2022-10-16T03:14:32;14.30;99.90
27534;DHT22;14973;51.460;7.008;2022-10-16T03:16:58;14.40;99.90
27534;DHT22;14973;51.460;7.008;2022-10-16T03:19:23;14.40;99.90
27534;DHT22;14973;51.460;7.008;2022-10-16T03:21:49;14.40;99.90
27534;DHT22;14973;51.460;7.008;2022-10-16T03:24:14;14.40;99.90
27534;DHT22;14973;51.460;7.008;2022-10-16T03:26:40;14.40;99.90
27534;DHT22;14973;51.460;7.008;2022-10-16T03:29:06;14.40;99.90
27534;DHT22;14973;51.460;7.008;2022-10-16T03:31:32;14.40;99.90
27534;DHT22;14973;51.460;7.008;2022-10-16T03:33:57;14.40;99.90
27534;DHT22;14973;51.460;7.008;2022-10-16T03:36:23;14.40;99.90
27534;DHT22;14973;51.460;7.008;2022-10-16T03:38:49;14.40;99.90
27534;DHT22;14973;51.460;7.008;2022-10-16T03:41:14;14.30;99.90
27534;DHT22;14973;51.460;7.008;2022-10-16T03:43:40;14.30;99.90
27534;DHT22;14973;51.460;7.008;2022-10-16T03:46:05;14.30;99.90
27534;DHT22;14973;51.460;7.008;2022-10-16T03:48:31;14.20;99.90
27534;DHT22;14973;51.460;7.008;2022-10-16T03:50:57;14.20;99.90
27534;DHT22;14973;51.460;7.008;2022-10-16T03:53:23;14.20;99.90
27534;DHT22;14973;51.460;7.008;2022-10-16T03:55:49;14.20;99.90
27534;DHT22;14973;51.460;7.008;2022-10-16T03:58:15;14.10;99.90
27534;DHT22;14973;51.460;7.008;2022-10-16T04:00:42;14.10;99.90
27534;DHT22;14973;51.460;7.008;2022-10-16T04:03:08;14.10;99.90
27534;DHT22;14973;51.460;7.008;2022-10-16T04:05:33;13.90;99.90
27534;DHT22;14973;51.460;7.008;2022-10-16T04:07:59;14.00;99.90
27534;DHT22;14973;51.460;7.008;2022-10-16T04:10:24;13.80;99.90
27534;DHT22;14973;51.460;7.008;2022-10-16T04:12:50;13.80;99.90
27534;DHT22;14973;51.460;7.008;2022-10-16T04:15:16;13.70;99.90
27534;DHT22;14973;51.460;7.008;2022-10-16T04:17:41;13.70;99.90
27534;DHT22;14973;51.460;7.008;2022-10-16T04:20:07;13.80;99.90
27534;DHT22;14973;51.460;7.008;2022-10-16T04:22:33;13.70;99.90
27534;DHT22;14973;51.460;7.008;2022-10-16T04:24:58;13.80;99.90
27534;DHT22;14973;51.460;7.008;2022-10-16T04:27:24;13.80;99.90
27534;DHT22;14973;51.460;7.008;2022-10-16T04:29:50;13.80;99.90
27534;DHT22;14973;51.460;7.008;2022-10-16T04:32:15;13.70;99.90
27534;DHT22;14973;51.460;7.008;2022-10-16T04:34:41;13.80;99.90
27534;DHT22;14973;51.460;7.008;2022-10-16T04:37:06;13.70;99.90
27534;DHT22;14973;51.460;7.008;2022-10-16T04:39:32;13.70;99.90
27534;DHT22;14973;51.460;7.008;2022-10-16T04:41:58;13.60;99.90
27534;DHT22;14973;51.460;7.008;2022-10-16T04:44:23;13.60;99.90
27534;DHT22;14973;51.460;7.008;2022-10-16T04:46:52;13.70;99.90
27534;DHT22;14973;51.460;7.008;2022-10-16T04:49:17;13.70;99.90
27534;DHT22;14973;51.460;7.008;2022-10-16T04:51:43;13.70;99.90
27534;DHT22;14973;51.460;7.008;2022-10-16T04:54:09;13.70;99.90
27534;DHT22;14973;51.460;7.008;2022-10-16T04:56:35;13.60;99.90
27534;DHT22;14973;51.460;7.008;2022-10-16T04:59:08;13.70;99.90
27534;DHT22;14973;51.460;7.008;2022-10-16T05:01:34;13.70;99.90
27534;DHT22;14973;51.460;7.008;2022-10-16T05:04:00;13.60;99.90
27534;DHT22;14973;51.460;7.008;2022-10-16T05:06:25;13.60;99.90
27534;DHT22;14973;51.460;7.008;2022-10-16T05:08:51;13.60;99.90
27534;DHT22;14973;51.460;7.008;2022-10-16T05:11:17;13.60;99.90
27534;DHT22;14973;51.460;7.008;2022-10-16T05:13:42;13.60;99.90
27534;DHT22;14973;51.460;7.008;2022-10-16T05:16:08;13.60;99.90
27534;DHT22;14973;51.460;7.008;2022-10-16T05:18:33;13.60;99.90
27534;DHT22;14973;51.460;7.008;2022-10-16T05:20:59;13.70;99.90
27534;DHT22;14973;51.460;7.008;2022-10-16T05:23:25;13.60;99.90
27534;DHT22;14973;51.460;7.008;2022-10-16T05:25:57;13.70;99.90
27534;DHT22;14973;51.460;7.008;2022-10-16T05:28:28;13.70;99.90
27534;DHT22;14973;51.460;7.008;2022-10-16T05:30:54;13.70;99.90
27534;DHT22;14973;51.460;7.008;2022-10-16T05:33:20;13.70;99.90
27534;DHT22;14973;51.460;7.008;2022-10-16T05:35:46;13.70;99.90
27534;DHT22;14973;51.460;7.008;2022-10-16T05:38:12;13.70;99.90
27534;DHT22;14973;51.460;7.008;2022-10-16T05:40:37;13.70;99.90
27534;DHT22;14973;51.460;7.008;2022-10-16T05:43:03;13.70;99.90
27534;DHT22;14973;51.460;7.008;2022-10-16T05:45:29;13.60;99.90
27534;DHT22;14973;51.460;7.008;2022-10-16T05:47:54;13.70;99.90
27534;DHT22;14973;51.460;7.008;2022-10-16T05:50:20;13.70;99.90
27534;DHT22;14973;51.460;7.008;2022-10-16T05:52:46;13.70;99.90
27534;DHT22;14973;51.460;7.008;2022-10-16T05:55:11;13.70;99.90
27534;DHT22;14973;51.460;7.008;2022-10-16T05:57:37;13.70;99.90
27534;DHT22;14973;51.460;7.008;2022-10-16T06:00:04;13.80;99.90
27534;DHT22;14973;51.460;7.008;2022-10-16T06:02:29;13.70;99.90
27534;DHT22;14973;51.460;7.008;2022-10-16T06:04:55;13.80;99.90
27534;DHT22;14973;51.460;7.008;2022-10-16T06:07:21;13.80;99.90
27534;DHT22;14973;51.460;7.008;2022-10-16T06:09:50;13.70;99.90
27534;DHT22;14973;51.460;7.008;2022-10-16T06:12:16;13.70;99.90
27534;DHT22;14973;51.460;7.008;2022-10-16T06:14:42;13.70;99.90
27534;DHT22;14973;51.460;7.008;2022-10-16T06:17:08;13.70;99.90
27534;DHT22;14973;51.460;7.008;2022-10-16T06:19:33;13.70;99.90
27534;DHT22;14973;51.460;7.008;2022-10-16T06:21:59;13.80;99.90
27534;DHT22;14973;51.460;7.008;2022-10-16T06:24:25;13.80;99.90
27534;DHT22;14973;51.460;7.008;2022-10-16T06:26:51;13.80;99.90
27534;DHT22;14973;51.460;7.008;2022-10-16T06:29:16;13.80;99.90
27534;DHT22;14973;51.460;7.008;2022-10-16T06:31:42;13.80;99.90
27534;DHT22;14973;51.460;7.008;2022-10-16T06:34:09;13.80;99.90
27534;DHT22;14973;51.460;7.008;2022-10-16T06:36:36;13.80;99.90
27534;DHT22;14973;51.460;7.008;2022-10-16T06:39:03;13.90;99.90
27534;DHT22;14973;51.460;7.008;2022-10-16T06:41:28;14.00;99.90
27534;DHT22;14973;51.460;7.008;2022-10-16T06:43:54;14.10;99.90
27534;DHT22;14973;51.460;7.008;2022-10-16T06:46:22;14.20;99.90
27534;DHT22;14973;51.460;7.008;2022-10-16T06:48:48;14.30;99.90
27534;DHT22;14973;51.460;7.008;2022-10-16T06:51:16;14.30;99.90
27534;DHT22;14973;51.460;7.008;2022-10-16T06:53:47;14.50;99.90
27534;DHT22;14973;51.460;7.008;2022-10-16T06:56:21;14.50;99.90
27534;DHT22;14973;51.460;7.008;2022-10-16T06:58:47;14.60;99.90
27534;DHT22;14973;51.460;7.008;2022-10-16T07:01:14;14.70;99.90
27534;DHT22;14973;51.460;7.008;2022-10-16T07:03:41;14.80;99.90
27534;DHT22;14973;51.460;7.008;2022-10-16T07:06:10;14.80;99.90
27534;DHT22;14973;51.460;7.008;2022-10-16T07:08:38;14.70;99.90
27534;DHT22;14973;51.460;7.008;2022-10-16T07:11:09;14.80;99.90
27534;DHT22;14973;51.460;7.008;2022-10-16T07:13:36;14.70;99.90
27534;DHT22;14973;51.460;7.008;2022-10-16T07:16:07;14.70;99.90
27534;DHT22;14973;51.460;7.008;2022-10-16T07:18:32;14.70;99.90
27534;DHT22;14973;51.460;7.008;2022-10-16T07:21:20;14.60;99.90
27534;DHT22;14973;51.460;7.008;2022-10-16T07:23:53;14.60;99.90
27534;DHT22;14973;51.460;7.008;2022-10-16T07:26:20;14.60;99.90
27534;DHT22;14973;51.460;7.008;2022-10-16T07:28:46;14.60;99.90
27534;DHT22;14973;51.460;7.008;2022-10-16T07:31:13;14.50;99.90
27534;DHT22;14973;51.460;7.008;2022-10-16T07:33:40;14.50;99.90
27534;DHT22;14973;51.460;7.008;2022-10-16T07:36:07;14.40;99.90
27534;DHT22;14973;51.460;7.008;2022-10-16T07:38:34;14.50;99.90
27534;DHT22;14973;51.460;7.008;2022-10-16T07:41:05;14.50;99.90
27534;DHT22;14973;51.460;7.008;2022-10-16T07:43:31;14.50;99.90
27534;DHT22;14973;51.460;7.008;2022-10-16T07:45:57;14.60;99.90
27534;DHT22;14973;51.460;7.008;2022-10-16T07:48:26;14.60;99.90
27534;DHT22;14973;51.460;7.008;2022-10-16T07:50:52;14.70;99.90
27534;DHT22;14973;51.460;7.008;2022-10-16T07:53:17;14.70;99.90
27534;DHT22;14973;51.460;7.008;2022-10-16T07:55:43;14.80;99.90
27534;DHT22;14973;51.460;7.008;2022-10-16T07:58:08;14.80;99.90
27534;DHT22;14973;51.460;7.008;2022-10-16T08:00:36;15.00;99.90
27534;DHT22;14973;51.460;7.008;2022-10-16T08:03:02;15.10;99.90
27534;DHT22;14973;51.460;7.008;2022-10-16T08:05:30;15.30;99.90
27534;DHT22;14973;51.460;7.008;2022-10-16T08:07:56;15.60;99.90
27534;DHT22;14973;51.460;7.008;2022-10-16T08:10:24;16.50;99.90
27534;DHT22;14973;51.460;7.008;2022-10-16T08:12:50;18.00;99.90
27534;DHT22;14973;51.460;7.008;2022-10-16T08:15:17;19.80;99.90
27534;DHT22;14973;51.460;7.008;2022-10-16T08:17:42;20.90;99.90
27534;DHT22;14973;51.460;7.008;2022-10-16T08:20:09;22.40;99.90
27534;DHT22;14973;51.460;7.008;2022-10-16T08:22:34;23.40;99.90
27534;DHT22;14973;51.460;7.008;2022-10-16T08:25:00;23.90;99.90
27534;DHT22;14973;51.460;7.008;2022-10-16T08:27:33;24.40;99.90
27534;DHT22;14973;51.460;7.008;2022-10-16T08:29:59;24.40;99.90
27534;DHT22;14973;51.460;7.008;2022-10-16T08:32:25;24.50;99.90
27534;DHT22;14973;51.460;7.008;2022-10-16T08:34:50;25.30;99.90
27534;DHT22;14973;51.460;7.008;2022-10-16T08:37:16;25.70;99.90
27534;DHT22;14973;51.460;7.008;2022-10-16T08:39:41;26.30;99.90
27534;DHT22;14973;51.460;7.008;2022-10-16T08:42:15;26.50;99.90
27534;DHT22;14973;51.460;7.008;2022-10-16T08:50:02;28.40;98.40
27534;DHT22;14973;51.460;7.008;2022-10-16T08:52:35;28.50;97.30
27534;DHT22;14973;51.460;7.008;2022-10-16T08:55:04;28.30;96.90
27534;DHT22;14973;51.460;7.008;2022-10-16T08:57:29;27.90;97.00
27534;DHT22;14973;51.460;7.008;2022-10-16T09:00:00;27.10;98.10
27534;DHT22;14973;51.460;7.008;2022-10-16T09:02:33;27.50;97.80
27534;DHT22;14973;51.460;7.008;2022-10-16T09:08:05;28.40;96.60
27534;DHT22;14973;51.460;7.008;2022-10-16T09:13:23;26.80;97.90
27534;DHT22;14973;51.460;7.008;2022-10-16T09:21:43;24.10;99.90
27534;DHT22;14973;51.460;7.008;2022-10-16T09:24:16;23.60;99.90
27534;DHT22;14973;51.460;7.008;2022-10-16T09:26:43;23.00;99.90
27534;DHT22;14973;51.460;7.008;2022-10-16T09:29:16;23.20;99.90
27534;DHT22;14973;51.460;7.008;2022-10-16T09:31:42;23.30;99.90
27534;DHT22;14973;51.460;7.008;2022-10-16T09:34:39;23.00;99.90
27534;DHT22;14973;51.460;7.008;2022-10-16T09:37:09;22.70;99.90
27534;DHT22;14973;51.460;7.008;2022-10-16T09:40:04;22.70;99.90
27534;DHT22;14973;51.460;7.008;2022-10-16T09:42:35;22.80;99.90
27534;DHT22;14973;51.460;7.008;2022-10-16T09:45:03;22.60;99.90
27534;DHT22;14973;51.460;7.008;2022-10-16T09:47:30;22.30;99.90
27534;DHT22;14973;51.460;7.008;2022-10-16T09:50:02;22.10;99.90
27534;DHT22;14973;51.460;7.008;2022-10-16T09:52:32;21.70;99.90
27534;DHT22;14973;51.460;7.008;2022-10-16T09:55:02;21.60;99.90
27534;DHT22;14973;51.460;7.008;2022-10-16T09:57:28;21.80;99.90
27534;DHT22;14973;51.460;7.008;2022-10-16T09:59:56;22.10;99.90
27534;DHT22;14973;51.460;7.008;2022-10-16T10:02:34;22.10;99.90
27534;DHT22;14973;51.460;7.008;2022-10-16T10:05:01;22.10;99.90
27534;DHT22;14973;51.460;7.008;2022-10-16T10:07:31;22.30;99.90
27534;DHT22;14973;51.460;7.008;2022-10-16T10:10:02;22.10;99.90
27534;DHT22;14973;51.460;7.008;2022-10-16T10:12:30;21.80;99.90
27534;DHT22;14973;51.460;7.008;2022-10-16T10:15:09;21.60;99.90
27534;DHT22;14973;51.460;7.008;2022-10-16T10:17:46;21.80;99.90
27534;DHT22;14973;51.460;7.008;2022-10-16T10:20:21;21.70;99.90
27534;DHT22;14973;51.460;7.008;2022-10-16T10:22:47;21.60;99.90
27534;DHT22;14973;51.460;7.008;2022-10-16T10:36:40;21.50;99.90
27534;DHT22;14973;51.460;7.008;2022-10-16T10:39:18;21.40;99.90
27534;DHT22;14973;51.460;7.008;2022-10-16T10:50:07;21.60;99.90
27534;DHT22;14973;51.460;7.008;2022-10-16T10:52:44;21.80;99.90
27534;DHT22;14973;51.460;7.008;2022-10-16T11:00:40;22.00;99.90
27534;DHT22;14973;51.460;7.008;2022-10-16T11:06:10;22.20;99.90
27534;DHT22;14973;51.460;7.008;2022-10-16T11:08:41;22.60;99.90
27534;DHT22;14973;51.460;7.008;2022-10-16T11:11:30;22.60;99.90
27534;DHT22;14973;51.460;7.008;2022-10-16T11:16:37;22.70;99.90
27534;DHT22;14973;51.460;7.008;2022-10-16T11:19:19;22.60;99.90
27534;DHT22;14973;51.460;7.008;2022-10-16T11:21:54;22.80;99.90
27534;DHT22;14973;51.460;7.008;2022-10-16T11:24:26;22.80;99.90
27534;DHT22;14973;51.460;7.008;2022-10-16T11:27:02;22.80;99.90
27534;DHT22;14973;51.460;7.008;2022-10-16T11:29:31;22.40;99.90
27534;DHT22;14973;51.460;7.008;2022-10-16T11:32:03;22.20;99.90
27534;DHT22;14973;51.460;7.008;2022-10-16T11:37:11;22.00;99.90
27534;DHT22;14973;51.460;7.008;2022-10-16T11:39:39;21.90;99.90
27534;DHT22;14973;51.460;7.008;2022-10-16T11:42:21;21.70;99.90
27534;DHT22;14973;51.460;7.008;2022-10-16T11:47:35;21.80;99.90
27534;DHT22;14973;51.460;7.008;2022-10-16T11:55:42;21.80;99.90
27534;DHT22;14973;51.460;7.008;2022-10-16T11:58:27;21.90;99.90
27534;DHT22;14973;51.460;7.008;2022-10-16T12:03:40;22.00;99.90
27534;DHT22;14973;51.460;7.008;2022-10-16T12:09:01;21.80;99.90
27534;DHT22;14973;51.460;7.008;2022-10-16T12:11:37;21.80;99.90
27534;DHT22;14973;51.460;7.008;2022-10-16T12:16:30;21.90;99.90
27534;DHT22;14973;51.460;7.008;2022-10-16T12:19:23;21.70;99.90
27534;DHT22;14973;51.460;7.008;2022-10-16T12:21:51;21.40;99.90
27534;DHT22;14973;51.460;7.008;2022-10-16T12:24:42;21.60;99.90
27534;DHT22;14973;51.460;7.008;2022-10-16T12:27:30;21.60;99.90
27534;DHT22;14973;51.460;7.008;2022-10-16T12:30:00;21.50;99.90
27534;DHT22;14973;51.460;7.008;2022-10-16T12:32:37;21.40;99.90
27534;DHT22;14973;51.460;7.008;2022-10-16T12:35:06;21.30;99.90
27534;DHT22;14973;51.460;7.008;2022-10-16T12:37:34;21.20;99.90
27534;DHT22;14973;51.460;7.008;2022-10-16T12:40:13;21.20;99.90
27534;DHT22;14973;51.460;7.008;2022-10-16T12:42:40;21.10;99.90
27534;DHT22;14973;51.460;7.008;2022-10-16T12:47:52;21.10;99.90
27534;DHT22;14973;51.460;7.008;2022-10-16T12:50:25;21.20;99.90
27534;DHT22;14973;51.460;7.008;2022-10-16T12:52:52;21.40;99.90
27534;DHT22;14973;51.460;7.008;2022-10-16T12:55:19;21.40;99.90
27534;DHT22;14973;51.460;7.008;2022-10-16T13:00:28;21.30;99.90
27534;DHT22;14973;51.460;7.008;2022-10-16T13:08:46;21.20;99.90
27534;DHT22;14973;51.460;7.008;2022-10-16T13:25:19;20.60;99.90
27534;DHT22;14973;51.460;7.008;2022-10-16T13:28:06;20.80;99.90
27534;DHT22;14973;51.460;7.008;2022-10-16T13:30:52;20.80;99.90
27534;DHT22;14973;51.460;7.008;2022-10-16T13:33:40;20.90;99.90
27534;DHT22;14973;51.460;7.008;2022-10-16T13:36:23;20.90;99.90
27534;DHT22;14973;51.460;7.008;2022-10-16T13:41:43;20.80;99.90
27534;DHT22;14973;51.460;7.008;2022-10-16T13:44:18;20.70;99.90
27534;DHT22;14973;51.460;7.008;2022-10-16T13:46:45;20.60;99.90
27534;DHT22;14973;51.460;7.008;2022-10-16T13:49:17;20.50;99.90
27534;DHT22;14973;51.460;7.008;2022-10-16T13:51:54;20.30;99.90
27534;DHT22;14973;51.460;7.008;2022-10-16T13:54:20;20.20;99.90
27534;DHT22;14973;51.460;7.008;2022-10-16T13:56:46;20.10;99.90
27534;DHT22;14973;51.460;7.008;2022-10-16T13:59:41;20.10;99.90
27534;DHT22;14973;51.460;7.008;2022-10-16T14:02:26;20.10;99.90
27534;DHT22;14973;51.460;7.008;2022-10-16T14:04:53;20.10;99.90
27534;DHT22;14973;51.460;7.008;2022-10-16T14:07:24;20.30;99.90
27534;DHT22;14973;51.460;7.008;2022-10-16T14:09:51;20.40;99.90
27534;DHT22;14973;51.460;7.008;2022-10-16T14:12:17;20.50;99.90
27534;DHT22;14973;51.460;7.008;2022-10-16T14:14:46;20.60;99.90
27534;DHT22;14973;51.460;7.008;2022-10-16T14:17:32;20.60;99.90
27534;DHT22;14973;51.460;7.008;2022-10-16T14:20:00;20.70;99.90
27534;DHT22;14973;51.460;7.008;2022-10-16T14:22:39;20.70;99.90
27534;DHT22;14973;51.460;7.008;2022-10-16T14:27:57;20.50;99.90
27534;DHT22;14973;51.460;7.008;2022-10-16T14:30:24;20.40;99.90
27534;DHT22;14973;51.460;7.008;2022-10-16T14:33:20;20.30;99.90
27534;DHT22;14973;51.460;7.008;2022-10-16T14:35:46;20.20;99.90
27534;DHT22;14973;51.460;7.008;2022-10-16T14:38:21;20.20;99.90
27534;DHT22;14973;51.460;7.008;2022-10-16T14:40:48;20.20;99.90
27534;DHT22;14973;51.460;7.008;2022-10-16T14:43:26;20.20;99.90
27534;DHT22;14973;51.460;7.008;2022-10-16T14:45:55;20.10;99.90
27534;DHT22;14973;51.460;7.008;2022-10-16T14:48:22;20.10;99.90
27534;DHT22;14973;51.460;7.008;2022-10-16T14:50:48;20.30;99.90
27534;DHT22;14973;51.460;7.008;2022-10-16T14:53:14;20.30;99.90
27534;DHT22;14973;51.460;7.008;2022-10-16T14:55:40;20.20;99.90
27534;DHT22;14973;51.460;7.008;2022-10-16T14:58:17;20.10;99.90
27534;DHT22;14973;51.460;7.008;2022-10-16T15:00:43;20.10;99.90
27534;DHT22;14973;51.460;7.008;2022-10-16T15:03:09;20.00;99.90
27534;DHT22;14973;51.460;7.008;2022-10-16T15:05:35;19.90;99.90
27534;DHT22;14973;51.460;7.008;2022-10-16T15:08:00;19.90;99.90
27534;DHT22;14973;51.460;7.008;2022-10-16T15:10:27;19.90;99.90
27534;DHT22;14973;51.460;7.008;2022-10-16T15:12:54;19.90;99.90
27534;DHT22;14973;51.460;7.008;2022-10-16T15:17:49;19.80;99.90
27534;DHT22;14973;51.460;7.008;2022-10-16T15:20:18;19.70;99.90
27534;DHT22;14973;51.460;7.008;2022-10-16T15:22:43;19.60;99.90
27534;DHT22;14973;51.460;7.008;2022-10-16T15:28:10;19.50;99.90
27534;DHT22;14973;51.460;7.008;2022-10-16T15:30:36;19.50;99.90
27534;DHT22;14973;51.460;7.008;2022-10-16T15:33:03;19.50;99.90
27534;DHT22;14973;51.460;7.008;2022-10-16T15:35:29;19.40;99.90
27534;DHT22;14973;51.460;7.008;2022-10-16T15:37:55;19.40;99.90
27534;DHT22;14973;51.460;7.008;2022-10-16T15:40:21;19.40;99.90
27534;DHT22;14973;51.460;7.008;2022-10-16T15:42:48;19.30;99.90
27534;DHT22;14973;51.460;7.008;2022-10-16T15:45:14;19.20;99.90
27534;DHT22;14973;51.460;7.008;2022-10-16T15:47:43;19.20;99.90
27534;DHT22;14973;51.460;7.008;2022-10-16T15:50:13;19.10;99.90
27534;DHT22;14973;51.460;7.008;2022-10-16T15:52:40;19.00;99.90
27534;DHT22;14973;51.460;7.008;2022-10-16T15:55:10;19.00;99.90
27534;DHT22;14973;51.460;7.008;2022-10-16T15:57:38;18.90;99.90
27534;DHT22;14973;51.460;7.008;2022-10-16T16:00:12;18.90;99.90
27534;DHT22;14973;51.460;7.008;2022-10-16T16:02:39;18.80;99.90
27534;DHT22;14973;51.460;7.008;2022-10-16T16:05:05;18.70;99.90
27534;DHT22;14973;51.460;7.008;2022-10-16T16:07:34;18.70;99.90
27534;DHT22;14973;51.460;7.008;2022-10-16T16:09:59;18.70;99.90
27534;DHT22;14973;51.460;7.008;2022-10-16T16:12:25;18.60;99.90
27534;DHT22;14973;51.460;7.008;2022-10-16T16:14:51;18.60;99.90
27534;DHT22;14973;51.460;7.008;2022-10-16T16:17:17;18.50;99.90
27534;DHT22;14973;51.460;7.008;2022-10-16T16:19:42;18.40;99.90
27534;DHT22;14973;51.460;7.008;2022-10-16T16:22:08;18.30;99.90
27534;DHT22;14973;51.460;7.008;2022-10-16T16:24:33;18.30;99.90
27534;DHT22;14973;51.460;7.008;2022-10-16T16:26:59;18.30;99.90
27534;DHT22;14973;51.460;7.008;2022-10-16T16:29:24;18.20;99.90
27534;DHT22;14973;51.460;7.008;2022-10-16T16:31:50;18.20;99.90
27534;DHT22;14973;51.460;7.008;2022-10-16T16:34:25;18.10;99.90
27534;DHT22;14973;51.460;7.008;2022-10-16T16:36:51;18.10;99.90
27534;DHT22;14973;51.460;7.008;2022-10-16T16:39:17;17.90;99.90
27534;DHT22;14973;51.460;7.008;2022-10-16T16:41:42;17.90;99.90
27534;DHT22;14973;51.460;7.008;2022-10-16T16:44:10;17.80;99.90
27534;DHT22;14973;51.460;7.008;2022-10-16T16:46:36;17.70;99.90
27534;DHT22;14973;51.460;7.008;2022-10-16T16:49:03;17.60;99.90
27534;DHT22;14973;51.460;7.008;2022-10-16T16:51:29;17.50;99.90
27534;DHT22;14973;51.460;7.008;2022-10-16T16:53:55;17.50;99.90
27534;DHT22;14973;51.460;7.008;2022-10-16T16:56:22;17.50;99.90
27534;DHT22;14973;51.460;7.008;2022-10-16T16:58:50;17.40;99.90
27534;DHT22;14973;51.460;7.008;2022-10-16T17:01:16;17.30;99.90
27534;DHT22;14973;51.460;7.008;2022-10-16T17:03:43;17.20;99.90
27534;DHT22;14973;51.460;7.008;2022-10-16T17:06:11;17.20;99.90
27534;DHT22;14973;51.460;7.008;2022-10-16T17:08:37;17.20;99.90
27534;DHT22;14973;51.460;7.008;2022-10-16T17:11:03;17.10;99.90
27534;DHT22;14973;51.460;7.008;2022-10-16T17:13:32;17.10;99.90
27534;DHT22;14973;51.460;7.008;2022-10-16T17:16:00;17.10;99.90
27534;DHT22;14973;51.460;7.008;2022-10-16T17:18:26;17.10;99.90
27534;DHT22;14973;51.460;7.008;2022-10-16T17:20:51;17.10;99.90
27534;DHT22;14973;51.460;7.008;2022-10-16T17:23:18;17.10;99.90
27534;DHT22;14973;51.460;7.008;2022-10-16T17:25:45;17.20;99.90
27534;DHT22;14973;51.460;7.008;2022-10-16T17:28:11;17.10;99.90
27534;DHT22;14973;51.460;7.008;2022-10-16T17:30:41;17.20;99.90
27534;DHT22;14973;51.460;7.008;2022-10-16T17:33:08;17.20;99.90